Time;durP1;ratioP1;P1;durP2;ratioP2;P2;SDS_P1;SDS_P2;PMS_P1;PMS_P2;Temp;Humidity;BMP_temperature;BMP_pressure;BME280_temperature;BME280_humidity;BME280_pressure;Samples;Min_cycle;Max_cycle;Signal;HPM_P1;HPM_P2
2022/12/20 00:01:51;;;;;;;26.75;12.48;;;-1.30;99.90;;;;;;6430878;22;20024;-60
2022/12/20 00:04:25;;;;;;;23.60;11.75;;;-1.30;99.90;;;;;;6442917;22;19996;-59
2022/12/20 00:07:02;;;;;;;28.77;11.88;;;-1.30;99.90;;;;;;6431460;22;19992;-59
2022/12/20 00:09:39;;;;;;;11.13;7.50;;;-1.30;99.90;;;;;;6486956;22;20051;-62
2022/12/20 00:12:10;;;;;;;30.20;13.00;;;-1.30;99.90;;;;;;6486202;22;20042;-58
2022/12/20 00:14:41;;;;;;;27.70;10.50;;;-1.30;99.90;;;;;;6459278;22;19998;-58
2022/12/20 00:17:12;;;;;;;27.65;12.35;;;-1.30;99.90;;;;;;6459704;22;19999;-59
2022/12/20 00:19:46;;;;;;;23.45;10.20;;;-1.30;99.90;;;;;;6433160;22;20423;-60
2022/12/20 00:22:20;;;;;;;16.35;8.60;;;-1.30;99.90;;;;;;6484660;22;19999;-61
2022/12/20 00:24:54;;;;;;;;;;;-1.30;99.90;;;;;;6485665;22;20192;-60
2022/12/20 00:27:27;;;;;;;24.95;11.57;;;-1.30;99.90;;;;;;6458845;22;19909;-58
2022/12/20 00:29:58;;;;;;;25.25;10.20;;;-1.40;99.90;;;;;;6486092;22;20166;-59
2022/12/20 00:32:29;;;;;;;27.57;12.53;;;-1.30;99.90;;;;;;6457682;22;20003;-59
2022/12/20 00:35:01;;;;;;;17.93;8.73;;;-1.30;99.90;;;;;;6433500;22;19998;-59
2022/12/20 00:37:32;;;;;;;11.13;7.63;;;-1.30;99.90;;;;;;6457968;22;20059;-59
2022/12/20 00:40:08;;;;;;;17.88;9.35;;;-1.40;99.90;;;;;;6458299;22;20427;-60
2022/12/20 00:42:41;;;;;;;29.60;12.37;;;-1.40;99.90;;;;;;6458877;22;20025;-60
2022/12/20 00:45:15;;;;;;;30.70;11.80;;;-1.40;99.90;;;;;;6458120;22;20533;-60
2022/12/20 00:47:53;;;;;;;24.33;10.53;;;-1.30;99.90;;;;;;6433394;22;20205;-59
2022/12/20 00:50:26;;;;;;;26.20;10.43;;;-1.30;99.90;;;;;;6457448;22;19992;-59
2022/12/20 00:52:58;;;;;;;29.48;11.38;;;-1.30;99.90;;;;;;6485061;22;20039;-60
2022/12/20 00:55:29;;;;;;;38.63;15.05;;;-1.30;99.90;;;;;;6458100;22;20003;-59
2022/12/20 00:58:09;;;;;;;29.27;11.70;;;-1.20;99.90;;;;;;6496232;22;20000;-59
2022/12/20 01:00:42;;;;;;;27.02;12.48;;;-1.20;99.90;;;;;;6441841;22;19992;-60
2022/12/20 01:03:19;;;;;;;24.52;12.07;;;-1.30;99.90;;;;;;6452393;23;20662;-59
2022/12/20 01:05:56;;;;;;;21.53;10.07;;;-1.20;99.90;;;;;;6385855;23;20071;-61
2022/12/20 01:08:30;;;;;;;18.27;7.85;;;-1.20;99.90;;;;;;6465137;23;20187;-59
2022/12/20 01:11:15;;;;;;;28.83;11.50;;;-1.30;99.90;;;;;;6454253;23;20055;-61
2022/12/20 01:13:55;;;;;;;26.45;11.13;;;-1.30;99.90;;;;;;6454435;23;20003;-60
2022/12/20 01:16:33;;;;;;;28.08;11.63;;;-1.20;99.90;;;;;;6454824;23;20142;-59
2022/12/20 01:19:10;;;;;;;31.02;12.50;;;-1.20;99.90;;;;;;6453205;23;20056;-59
2022/12/20 01:21:48;;;;;;;35.60;14.80;;;-1.20;99.90;;;;;;6452479;23;20010;-63
2022/12/20 01:24:34;;;;;;;28.63;9.67;;;-1.20;99.90;;;;;;6428066;23;20010;-59
2022/12/20 01:27:07;;;;;;;21.38;8.70;;;-1.20;99.90;;;;;;6454381;23;20096;-59
2022/12/20 01:29:41;;;;;;;24.48;11.73;;;-1.20;99.90;;;;;;6428200;23;19996;-59
2022/12/20 01:32:17;;;;;;;23.17;8.95;;;-1.20;99.90;;;;;;6453523;23;20063;-59
2022/12/20 01:34:49;;;;;;;21.80;9.67;;;-1.30;99.90;;;;;;6427688;23;20051;-59
2022/12/20 01:37:22;;;;;;;28.10;10.38;;;-1.30;99.90;;;;;;6453437;23;20052;-59
2022/12/20 01:39:54;;;;;;;27.25;11.75;;;-1.30;99.90;;;;;;6427385;23;19992;-58
2022/12/20 01:42:25;;;;;;;18.67;10.20;;;-1.30;99.90;;;;;;6452841;23;20200;-59
2022/12/20 01:45:00;;;;;;;32.95;11.93;;;-1.30;99.90;;;;;;6427560;23;20048;-59
2022/12/20 01:47:36;;;;;;;31.47;12.47;;;-1.30;99.90;;;;;;6453751;23;20056;-61
2022/12/20 01:50:10;;;;;;;20.63;7.90;;;-1.20;99.90;;;;;;6454279;23;20248;-59
2022/12/20 01:52:45;;;;;;;15.87;6.77;;;-1.30;99.90;;;;;;6453043;23;20484;-59
2022/12/20 01:55:25;;;;;;;30.38;13.13;;;-1.30;99.90;;;;;;6462434;22;20051;-59
2022/12/20 01:58:09;;;;;;;20.67;9.18;;;-1.30;99.90;;;;;;6464362;23;20051;-59
2022/12/20 02:00:41;;;;;;;30.90;12.13;;;-1.20;99.90;;;;;;6401635;22;20055;-59
2022/12/20 02:03:21;;;;;;;28.33;10.88;;;-1.20;99.90;;;;;;6452735;23;20055;-60
2022/12/20 02:05:55;;;;;;;;;;;-1.20;99.90;;;;;;6416631;23;20019;-60
2022/12/20 02:08:34;;;;;;;15.00;7.60;;;-1.20;99.90;;;;;;6424421;23;19906;-59
2022/12/20 02:11:31;;;;;;;28.70;11.30;;;-1.20;99.90;;;;;;6453358;23;20051;-59
2022/12/20 02:14:08;;;;;;;26.83;12.47;;;-1.20;99.90;;;;;;6425073;23;20003;-60
2022/12/20 02:16:47;;;;;;;32.97;12.47;;;-1.10;99.90;;;;;;6452884;23;20211;-62
2022/12/20 02:19:41;;;;;;;25.83;12.35;;;-1.00;99.90;;;;;;6427061;23;20037;-60
2022/12/20 02:22:22;;;;;;;28.23;11.50;;;-1.10;99.90;;;;;;6426832;23;20002;-59
2022/12/20 02:25:17;;;;;;;26.88;9.10;;;-1.10;99.90;;;;;;6454256;23;20259;-58
2022/12/20 02:28:11;;;;;;;22.70;11.57;;;-1.10;99.90;;;;;;6425990;23;20177;-60
2022/12/20 02:30:48;;;;;;;25.95;12.02;;;-1.00;99.90;;;;;;6451708;23;20336;-60
2022/12/20 02:33:25;;;;;;;28.13;12.70;;;-1.00;99.90;;;;;;6452619;23;20075;-60
2022/12/20 02:35:56;;;;;;;24.13;11.57;;;-1.00;99.90;;;;;;6426395;23;20346;-60
2022/12/20 02:38:37;;;;;;;21.23;10.53;;;-1.00;99.90;;;;;;6426327;23;20000;-59
2022/12/20 02:41:20;;;;;;;30.23;12.40;;;-1.10;99.90;;;;;;6425794;23;20007;-59
2022/12/20 02:46:59;;;;;;;28.17;11.67;;;-1.10;99.90;;;;;;6453346;23;20047;-58
2022/12/20 02:49:37;;;;;;;28.77;12.43;;;-1.00;99.90;;;;;;6453533;23;20273;-60
2022/12/20 02:52:11;;;;;;;24.37;11.50;;;-1.00;99.90;;;;;;6398648;23;20010;-59
2022/12/20 02:54:48;;;;;;;26.42;10.98;;;-1.00;99.90;;;;;;6399460;23;20026;-58
2022/12/20 02:57:30;;;;;;;34.60;14.77;;;-1.10;99.90;;;;;;6426417;23;20011;-59
2022/12/20 03:00:12;;;;;;;11.50;7.57;;;-1.10;99.90;;;;;;6454130;23;20051;-59
2022/12/20 03:05:48;;;;;;;28.13;12.00;;;-1.10;99.90;;;;;;6419503;23;20016;-60
2022/12/20 03:08:21;;;;;;;27.80;12.15;;;-1.10;99.90;;;;;;6422455;23;19992;-58
2022/12/20 03:10:54;;;;;;;21.25;10.52;;;-1.10;99.90;;;;;;6426066;23;20003;-59
2022/12/20 03:13:33;;;;;;;23.17;11.40;;;-1.00;99.90;;;;;;6426654;23;20403;-59
2022/12/20 03:16:08;;;;;;;22.75;12.13;;;-1.00;99.90;;;;;;6452175;23;20067;-59
2022/12/20 03:18:41;;;;;;;29.98;12.88;;;-1.00;99.90;;;;;;6401111;23;20065;-59
2022/12/20 03:21:18;;;;;;;26.08;11.70;;;-1.00;99.90;;;;;;6453348;23;20225;-59
2022/12/20 03:23:49;;;;;;;30.10;12.50;;;-1.00;99.90;;;;;;6453480;23;20368;-59
2022/12/20 03:26:20;;;;;;;23.98;11.65;;;-1.00;99.90;;;;;;6426960;23;20004;-60
2022/12/20 03:28:57;;;;;;;22.30;10.50;;;-1.00;99.90;;;;;;6424238;23;20007;-59
2022/12/20 03:31:28;;;;;;;26.90;9.73;;;-1.00;99.90;;;;;;6426083;23;20296;-58
2022/12/20 03:34:00;;;;;;;29.95;12.20;;;-0.90;99.90;;;;;;6425944;23;20426;-58
2022/12/20 03:36:40;;;;;;;21.48;9.95;;;-1.00;99.90;;;;;;6451837;23;20059;-59
2022/12/20 03:39:12;;;;;;;34.70;13.20;;;-1.00;99.90;;;;;;6453417;23;20524;-59
2022/12/20 03:41:45;;;;;;;34.15;11.68;;;-1.00;99.90;;;;;;6452915;23;20008;-59
2022/12/20 03:44:16;;;;;;;35.03;13.23;;;-1.00;99.90;;;;;;6400444;23;20248;-60
2022/12/20 03:46:47;;;;;;;37.53;13.73;;;-1.00;99.90;;;;;;6424956;23;20208;-58
2022/12/20 03:49:18;;;;;;;24.98;10.93;;;-1.10;99.90;;;;;;6426483;23;20004;-59
2022/12/20 03:51:52;;;;;;;34.97;14.13;;;-1.10;99.90;;;;;;6453494;23;20428;-62
2022/12/20 03:54:24;;;;;;;28.55;11.13;;;-1.00;99.90;;;;;;6426056;23;20007;-59
2022/12/20 03:57:01;;;;;;;30.10;12.48;;;-1.00;99.90;;;;;;6428163;23;20004;-59
2022/12/20 03:59:34;;;;;;;31.85;12.57;;;-1.00;99.90;;;;;;6401799;23;20001;-59
2022/12/20 04:02:09;;;;;;;27.35;12.18;;;-1.00;99.90;;;;;;6456263;22;20019;-59
2022/12/20 04:04:44;;;;;;;25.20;10.93;;;-0.90;99.90;;;;;;6431413;23;20531;-59
2022/12/20 04:07:18;;;;;;;32.83;12.97;;;-1.00;99.90;;;;;;6409128;23;20067;-58
2022/12/20 04:09:49;;;;;;;24.42;12.52;;;-0.90;99.90;;;;;;6424771;23;20055;-59
2022/12/20 04:12:23;;;;;;;25.17;12.10;;;-0.90;99.90;;;;;;6453273;23;20052;-59
2022/12/20 04:15:00;;;;;;;25.58;11.27;;;-0.90;99.90;;;;;;6400598;23;20004;-59
2022/12/20 04:17:33;;;;;;;29.85;12.45;;;-0.90;99.90;;;;;;6426050;23;20000;-59
2022/12/20 04:20:27;;;;;;;23.43;10.03;;;-0.90;99.90;;;;;;6453662;23;20059;-58
2022/12/20 04:22:59;;;;;;;26.55;12.23;;;-0.90;99.90;;;;;;6451271;23;20242;-59
2022/12/20 04:25:30;;;;;;;35.17;14.63;;;-0.90;99.90;;;;;;6425903;23;20007;-60
2022/12/20 04:28:03;;;;;;;32.80;13.35;;;-0.90;99.90;;;;;;6452728;23;20043;-59
2022/12/20 04:30:42;;;;;;;32.92;14.20;;;-0.90;99.90;;;;;;6452786;23;19999;-58
2022/12/20 04:33:16;;;;;;;25.80;12.43;;;-0.80;99.90;;;;;;6426124;23;20011;-59
2022/12/20 04:35:50;;;;;;;27.83;12.50;;;-0.80;99.90;;;;;;6451962;23;20055;-59
2022/12/20 04:38:24;;;;;;;28.27;11.80;;;-0.80;99.90;;;;;;6426105;23;20063;-58
2022/12/20 04:40:58;;;;;;;32.63;13.45;;;-0.80;99.90;;;;;;6451483;23;20063;-59
2022/12/20 04:43:29;;;;;;;;;;;-0.80;99.90;;;;;;6436666;23;20008;-58
2022/12/20 04:46:01;;;;;;;36.80;13.00;;;-0.80;99.90;;;;;;6453389;23;19910;-59
2022/12/20 04:48:32;;;;;;;29.23;12.77;;;-0.90;99.90;;;;;;6452647;23;20059;-60
2022/12/20 04:51:06;;;;;;;26.85;12.90;;;-0.90;99.90;;;;;;6453288;23;20426;-59
2022/12/20 04:53:48;;;;;;;29.25;12.70;;;-0.80;99.90;;;;;;6453411;23;20043;-59
2022/12/20 04:56:30;;;;;;;29.00;11.50;;;-0.80;99.90;;;;;;6453959;23;20372;-58
2022/12/20 04:59:05;;;;;;;27.75;12.18;;;-0.90;99.90;;;;;;6455571;23;20046;-59
2022/12/20 05:01:38;;;;;;;28.42;13.27;;;-0.90;99.90;;;;;;6454496;22;20011;-59
2022/12/20 05:04:17;;;;;;;26.58;12.57;;;-0.90;99.90;;;;;;6453602;23;20039;-58
2022/12/20 05:06:48;;;;;;;23.05;11.00;;;-0.90;99.90;;;;;;6429239;23;19994;-60
2022/12/20 05:09:22;;;;;;;24.85;10.82;;;-0.90;99.90;;;;;;6454295;23;20059;-59
2022/12/20 05:11:53;;;;;;;26.92;11.98;;;-0.90;99.90;;;;;;6427474;23;20421;-59
2022/12/20 05:14:24;;;;;;;20.83;10.45;;;-0.90;99.90;;;;;;6428366;23;20003;-59
2022/12/20 05:16:59;;;;;;;23.00;9.82;;;-0.90;99.90;;;;;;6455238;23;20055;-58
2022/12/20 05:19:32;;;;;;;;;;;-0.90;99.90;;;;;;6456304;23;20052;-59
2022/12/20 05:27:45;;;;;;;26.80;12.32;;;-0.90;99.90;;;;;;6454665;23;19999;-58
2022/12/20 05:30:17;;;;;;;27.27;12.15;;;-0.90;99.90;;;;;;6428381;23;20049;-58
2022/12/20 05:32:51;;;;;;;33.17;13.03;;;-1.00;99.90;;;;;;6426575;23;20026;-59
2022/12/20 05:35:22;;;;;;;35.40;14.40;;;-0.90;99.90;;;;;;6427432;23;20002;-58
2022/12/20 05:37:59;;;;;;;27.05;12.25;;;-0.90;99.90;;;;;;6454976;23;20051;-59
2022/12/20 05:40:33;;;;;;;30.38;13.98;;;-0.90;99.90;;;;;;6454280;23;20056;-58
2022/12/20 05:43:13;;;;;;;27.33;12.18;;;-0.90;99.90;;;;;;6426805;23;20012;-58
2022/12/20 05:45:51;;;;;;;24.00;11.52;;;-0.90;99.90;;;;;;6454182;23;20039;-58
2022/12/20 05:48:25;;;;;;;23.73;10.73;;;-0.90;99.90;;;;;;6428396;23;20007;-57
2022/12/20 05:50:56;;;;;;;18.60;8.82;;;-1.00;99.90;;;;;;6427546;23;20000;-58
2022/12/20 05:53:27;;;;;;;31.03;13.60;;;-1.00;99.90;;;;;;6454034;23;20494;-59
2022/12/20 05:56:02;;;;;;;30.40;10.20;;;-1.00;99.90;;;;;;6453401;23;20161;-56
2022/12/20 05:58:33;;;;;;;33.95;13.52;;;-1.00;99.90;;;;;;6427743;23;20496;-58
2022/12/20 06:01:06;;;;;;;35.20;13.20;;;-1.00;99.90;;;;;;6425964;23;20026;-58
2022/12/20 06:03:39;;;;;;;25.98;11.02;;;-0.90;99.90;;;;;;6453773;23;20316;-59
2022/12/20 06:06:16;;;;;;;19.55;9.73;;;-0.90;99.90;;;;;;6405341;23;20019;-59
2022/12/20 06:08:49;;;;;;;32.78;13.77;;;-0.90;99.90;;;;;;6401164;23;20204;-58
2022/12/20 06:11:20;;;;;;;32.53;13.75;;;-0.90;99.90;;;;;;6426861;23;20014;-60
2022/12/20 06:13:58;;;;;;;40.28;13.35;;;-1.00;99.90;;;;;;6452749;23;20252;-60
2022/12/20 06:16:35;;;;;;;30.75;14.75;;;-0.90;99.90;;;;;;6452358;23;19992;-60
2022/12/20 06:19:11;;;;;;;36.37;15.97;;;-0.90;99.90;;;;;;6426451;23;20007;-60
2022/12/20 06:21:46;;;;;;;38.65;14.40;;;-0.80;99.90;;;;;;6427092;23;19992;-57
2022/12/20 06:24:17;;;;;;;40.65;14.27;;;-0.90;99.90;;;;;;6427083;23;20006;-60
2022/12/20 06:26:49;;;;;;;34.77;15.20;;;-0.90;99.90;;;;;;6427382;23;20184;-59
2022/12/20 06:29:23;;;;;;;32.08;13.82;;;-0.80;99.90;;;;;;6401251;23;20003;-61
2022/12/20 06:31:58;;;;;;;31.25;14.60;;;-0.80;99.90;;;;;;6450578;23;20074;-59
2022/12/20 06:34:32;;;;;;;40.30;17.48;;;-0.80;99.90;;;;;;6453355;23;20055;-62
2022/12/20 06:37:06;;;;;;;;;;;-0.80;99.90;;;;;;6453546;23;20051;-60
2022/12/20 06:39:37;;;;;;;40.53;15.38;;;-0.90;99.90;;;;;;6403160;23;19913;-60
2022/12/20 06:42:08;;;;;;;42.20;17.02;;;-0.90;99.90;;;;;;6453368;23;20014;-60
2022/12/20 06:44:41;;;;;;;25.05;12.63;;;-0.90;99.90;;;;;;6443450;23;19996;-60
2022/12/20 06:47:15;;;;;;;43.80;14.57;;;-0.80;99.90;;;;;;6425483;23;19988;-60
2022/12/20 06:49:46;;;;;;;38.67;14.40;;;-0.80;99.90;;;;;;6453160;23;20062;-60
2022/12/20 06:52:20;;;;;;;31.83;13.23;;;-0.80;99.90;;;;;;6426396;23;20201;-58
2022/12/20 06:54:53;;;;;;;40.45;17.25;;;-0.80;99.90;;;;;;6425400;23;20002;-60
2022/12/20 06:57:24;;;;;;;30.00;14.07;;;-0.80;99.90;;;;;;6451886;23;20224;-60
2022/12/20 06:59:55;;;;;;;32.25;15.50;;;-0.80;99.90;;;;;;6435824;23;19999;-60
2022/12/20 07:02:27;;;;;;;32.53;14.75;;;-0.80;99.90;;;;;;6399585;23;20011;-60
2022/12/20 07:05:00;;;;;;;27.00;11.90;;;-0.80;99.90;;;;;;6433835;23;20012;-59
2022/12/20 07:07:32;;;;;;;33.78;13.32;;;-0.90;99.90;;;;;;6411704;23;20000;-62
2022/12/20 07:10:04;;;;;;;42.10;15.25;;;-0.90;99.90;;;;;;6452248;23;20063;-61
2022/12/20 07:12:35;;;;;;;37.17;16.10;;;-0.90;99.90;;;;;;6452612;23;20051;-61
2022/12/20 07:15:09;;;;;;;30.80;12.82;;;-0.90;99.90;;;;;;6424575;23;19996;-58
2022/12/20 07:17:42;;;;;;;46.20;16.50;;;-0.90;99.90;;;;;;6397683;23;20475;-58
2022/12/20 07:20:16;;;;;;;42.70;15.73;;;-0.90;99.90;;;;;;6452098;23;20006;-58
2022/12/20 07:22:49;;;;;;;36.10;15.05;;;-0.90;99.90;;;;;;6453020;23;20000;-59
2022/12/20 07:25:24;;;;;;;29.40;11.75;;;-0.90;99.90;;;;;;6425907;23;20522;-58
2022/12/20 07:28:00;;;;;;;28.90;11.77;;;-0.90;99.90;;;;;;6426197;23;20003;-58
2022/12/20 07:30:39;;;;;;;44.45;14.93;;;-0.90;99.90;;;;;;6422453;23;20014;-59
2022/12/20 07:33:10;;;;;;;26.75;15.18;;;-0.90;99.90;;;;;;6460622;23;20003;-58
2022/12/20 07:35:47;;;;;;;41.47;15.23;;;-0.90;99.90;;;;;;6451258;23;19996;-59
2022/12/20 07:38:20;;;;;;;32.63;13.82;;;-0.90;99.90;;;;;;6425848;23;20215;-60
2022/12/20 07:40:51;;;;;;;30.15;14.00;;;-0.90;99.90;;;;;;6452222;23;20018;-59
2022/12/20 07:43:30;;;;;;;43.07;14.20;;;-0.90;99.90;;;;;;6452154;23;20406;-58
2022/12/20 07:46:06;;;;;;;36.60;10.55;;;-0.90;99.90;;;;;;6425628;23;20000;-59
2022/12/20 07:48:39;;;;;;;22.38;10.73;;;-0.90;99.90;;;;;;6425352;23;19988;-59
2022/12/20 07:51:26;;;;;;;21.60;10.85;;;-0.90;99.90;;;;;;6425507;23;20003;-59
2022/12/20 07:54:10;;;;;;;43.20;14.63;;;-0.90;99.90;;;;;;6452516;23;20003;-59
2022/12/20 07:56:48;;;;;;;41.80;15.50;;;-0.90;99.90;;;;;;6449455;23;20221;-59
2022/12/20 07:59:28;;;;;;;40.17;15.23;;;-0.80;99.90;;;;;;6451880;23;20059;-58
2022/12/20 08:02:00;;;;;;;35.25;16.13;;;-0.70;99.90;;;;;;6424855;23;20022;-59
2022/12/20 08:04:35;;;;;;;36.38;17.40;;;-0.70;99.90;;;;;;6405491;23;20072;-59
2022/12/20 08:07:08;;;;;;;39.85;16.48;;;-0.70;99.90;;;;;;6431549;23;20078;-59
2022/12/20 08:09:42;;;;;;;32.60;13.55;;;-0.70;99.90;;;;;;6452167;23;20047;-58
2022/12/20 08:12:15;;;;;;;;;;;-0.70;99.90;;;;;;6424466;23;20004;-59
2022/12/20 08:14:51;;;;;;;30.38;15.40;;;-0.60;99.90;;;;;;6426201;23;19903;-60
2022/12/20 08:17:22;;;;;;;34.83;12.95;;;-0.60;99.90;;;;;;6423419;23;20343;-59
2022/12/20 08:19:56;;;;;;;44.58;14.35;;;-0.60;99.90;;;;;;6451433;23;19996;-58
2022/12/20 08:22:27;;;;;;;30.75;12.02;;;-0.60;99.90;;;;;;6424537;23;20004;-61
2022/12/20 08:24:59;;;;;;;26.27;13.88;;;-0.70;99.90;;;;;;6452787;23;20063;-58
2022/12/20 08:27:31;;;;;;;41.08;15.75;;;-0.70;99.90;;;;;;6449830;23;20022;-60
2022/12/20 08:30:07;;;;;;;38.75;15.07;;;-0.60;99.90;;;;;;6427674;23;19992;-58
2022/12/20 08:32:39;;;;;;;34.38;13.10;;;-0.70;99.90;;;;;;6426797;23;20004;-58
2022/12/20 08:35:11;;;;;;;41.00;14.27;;;-0.70;99.90;;;;;;6453786;23;20015;-59
2022/12/20 08:37:43;;;;;;;45.40;15.30;;;-0.70;99.90;;;;;;6454032;23;19988;-59
2022/12/20 08:40:15;;;;;;;26.65;12.13;;;-0.70;99.90;;;;;;6454016;23;20222;-58
2022/12/20 08:42:48;;;;;;;23.00;11.02;;;-0.70;99.90;;;;;;6401710;23;20004;-60
2022/12/20 08:45:22;;;;;;;40.17;15.35;;;-0.70;99.90;;;;;;6454232;23;20004;-58
2022/12/20 08:47:56;;;;;;;33.60;13.65;;;-0.70;99.90;;;;;;6453475;23;20040;-58
2022/12/20 08:50:28;;;;;;;21.92;11.43;;;-0.70;99.90;;;;;;6454167;23;19999;-59
2022/12/20 08:52:59;;;;;;;29.00;14.65;;;-0.70;99.90;;;;;;6453544;23;20051;-58
2022/12/20 08:55:30;;;;;;;35.10;14.38;;;-0.70;99.90;;;;;;6443598;23;20000;-58
2022/12/20 08:58:01;;;;;;;35.78;13.82;;;-0.60;99.90;;;;;;6426387;23;19992;-59
2022/12/20 09:00:38;;;;;;;41.77;14.00;;;-0.50;99.90;;;;;;6464000;23;20199;-60
2022/12/20 09:03:10;;;;;;;28.48;12.85;;;-0.60;99.90;;;;;;6451730;23;20008;-58
2022/12/20 09:05:50;;;;;;;28.33;12.30;;;-0.60;99.90;;;;;;6365145;23;20027;-58
2022/12/20 09:08:26;;;;;;;31.15;13.77;;;-0.70;99.90;;;;;;6421678;23;20006;-59
2022/12/20 09:11:19;;;;;;;43.72;15.52;;;-0.60;99.90;;;;;;6448142;23;20609;-58
2022/12/20 09:13:54;;;;;;;28.63;11.35;;;-0.60;99.90;;;;;;6452963;23;20000;-58
2022/12/20 09:16:31;;;;;;;39.75;14.85;;;-0.60;99.90;;;;;;6453196;23;19992;-59
2022/12/20 09:19:03;;;;;;;42.50;14.95;;;-0.50;99.90;;;;;;6425378;23;19996;-60
2022/12/20 09:21:34;;;;;;;24.73;11.45;;;-0.50;99.90;;;;;;6426448;23;19998;-58
2022/12/20 09:24:10;;;;;;;31.08;12.73;;;-0.50;99.90;;;;;;6453136;23;20010;-57
2022/12/20 09:26:44;;;;;;;20.52;9.45;;;-0.50;99.90;;;;;;6397575;23;20002;-60
2022/12/20 09:29:18;;;;;;;31.50;12.90;;;-0.60;99.90;;;;;;6452966;23;20000;-57
2022/12/20 09:31:54;;;;;;;37.55;13.77;;;-0.60;99.90;;;;;;6452459;23;20055;-58
2022/12/20 09:34:31;;;;;;;33.00;11.40;;;-0.70;99.90;;;;;;6452604;23;20056;-57
2022/12/20 09:37:04;;;;;;;29.15;10.57;;;-0.70;99.90;;;;;;6420151;23;19996;-61
2022/12/20 09:39:45;;;;;;;32.65;12.52;;;-0.60;99.90;;;;;;6447705;23;20216;-58
2022/12/20 09:42:23;;;;;;;31.02;9.93;;;-0.60;99.90;;;;;;6451853;23;19996;-58
2022/12/20 09:45:05;;;;;;;35.93;13.93;;;-0.60;99.90;;;;;;6458711;23;20118;-57
2022/12/20 09:47:40;;;;;;;33.85;13.73;;;-0.60;99.90;;;;;;6452687;23;20075;-58
2022/12/20 09:50:16;;;;;;;36.42;13.65;;;-0.50;99.90;;;;;;6453197;23;20055;-58
2022/12/20 09:53:06;;;;;;;30.85;9.95;;;-0.50;99.90;;;;;;6463248;23;20051;-58
2022/12/20 09:55:54;;;;;;;38.97;12.90;;;-0.50;99.90;;;;;;6424434;23;20004;-58
2022/12/20 10:02:17;;;;;;;30.20;12.13;;;-0.50;99.90;;;;;;6463759;22;20038;-58
2022/12/20 10:04:52;;;;;;;34.85;14.55;;;-0.50;99.90;;;;;;6429314;23;20435;-59
2022/12/20 10:07:55;;;;;;;39.60;15.95;;;-0.50;99.90;;;;;;6435333;23;19996;-58
2022/12/20 10:10:32;;;;;;;21.65;10.43;;;-0.50;99.90;;;;;;6440222;23;20306;-58
2022/12/20 10:13:12;;;;;;;22.75;9.73;;;-0.40;99.90;;;;;;6451836;23;20052;-59
2022/12/20 10:16:00;;;;;;;25.02;11.30;;;-0.50;99.90;;;;;;6452644;23;20055;-58
2022/12/20 10:19:04;;;;;;;28.02;12.77;;;-0.60;99.90;;;;;;6398637;23;20006;-62
2022/12/20 10:22:31;;;;;;;33.88;12.93;;;-0.60;99.90;;;;;;6379043;23;20000;-59
2022/12/20 10:25:18;;;;;;;31.17;12.63;;;-0.50;99.90;;;;;;6437860;23;20065;-59
2022/12/20 10:27:55;;;;;;;40.80;14.95;;;-0.50;99.90;;;;;;6423583;23;20219;-61
2022/12/20 10:30:28;;;;;;;28.20;11.68;;;-0.40;99.90;;;;;;6447841;23;20010;-58
2022/12/20 10:33:00;;;;;;;30.33;12.80;;;-0.50;99.90;;;;;;6400690;23;20006;-58
2022/12/20 10:35:44;;;;;;;27.52;11.80;;;-0.50;99.90;;;;;;6426726;23;20000;-59
2022/12/20 10:38:19;;;;;;;32.35;11.48;;;-0.40;99.90;;;;;;6453939;23;20003;-60
2022/12/20 10:40:53;;;;;;;40.53;12.57;;;-0.40;99.90;;;;;;6426221;23;20000;-59
2022/12/20 10:43:45;;;;;;;31.23;12.50;;;-0.40;99.90;;;;;;6425339;23;20000;-58
2022/12/20 10:46:23;;;;;;;40.10;12.43;;;-0.30;99.90;;;;;;6425841;23;20036;-59
2022/12/20 10:48:59;;;;;;;27.80;11.30;;;-0.30;99.90;;;;;;6451882;23;19994;-58
2022/12/20 10:51:35;;;;;;;37.22;13.95;;;-0.40;99.90;;;;;;6403124;23;19988;-59
2022/12/20 10:54:25;;;;;;;17.60;7.83;;;-0.30;99.90;;;;;;6400450;23;19996;-58
2022/12/20 10:57:05;;;;;;;37.80;13.10;;;-0.30;99.90;;;;;;6451259;23;20281;-58
2022/12/20 10:59:41;;;;;;;19.52;9.05;;;-0.30;99.90;;;;;;6451348;23;20590;-58
2022/12/20 11:02:30;;;;;;;32.07;11.23;;;-0.30;99.90;;;;;;6425982;23;19996;-58
2022/12/20 11:05:13;;;;;;;24.42;10.63;;;-0.40;99.90;;;;;;6426268;23;20009;-58
2022/12/20 11:08:05;;;;;;;22.53;8.70;;;-0.40;99.90;;;;;;6439872;23;20000;-60
2022/12/20 11:10:40;;;;;;;18.63;9.57;;;-0.40;99.90;;;;;;6452460;23;19992;-57
2022/12/20 11:13:22;;;;;;;;;;;-0.50;99.90;;;;;;6427672;23;20364;-58
2022/12/20 11:16:00;;;;;;;36.80;11.95;;;-0.50;99.90;;;;;;6451979;23;20251;-57
2022/12/20 11:19:05;;;;;;;26.43;10.53;;;-0.40;99.90;;;;;;6452428;23;20055;-58
2022/12/20 11:21:50;;;;;;;33.15;11.88;;;-0.40;99.90;;;;;;6414682;23;20002;-57
2022/12/20 11:24:34;;;;;;;31.80;11.70;;;-0.30;99.90;;;;;;6452719;23;20000;-58
2022/12/20 11:27:24;;;;;;;28.38;11.98;;;-0.30;99.90;;;;;;6451136;23;20430;-57
2022/12/20 11:30:00;;;;;;;19.92;10.10;;;-0.40;99.90;;;;;;6424854;23;20031;-58
2022/12/20 11:32:46;;;;;;;25.92;12.88;;;-0.50;99.90;;;;;;6452516;23;19995;-59
2022/12/20 11:35:32;;;;;;;29.88;11.60;;;-0.50;99.90;;;;;;6463001;23;19996;-59
2022/12/20 11:38:15;;;;;;;15.25;9.07;;;-0.40;99.90;;;;;;6452490;23;20047;-59
2022/12/20 11:40:55;;;;;;;29.50;11.38;;;-0.50;99.90;;;;;;6425831;23;20003;-58
2022/12/20 11:43:46;;;;;;;33.95;12.23;;;-0.60;99.90;;;;;;6400638;23;20011;-58
2022/12/20 11:46:40;;;;;;;31.55;9.25;;;-0.60;99.90;;;;;;6399938;23;20023;-59
2022/12/20 11:49:49;;;;;;;29.83;12.05;;;-0.50;99.90;;;;;;6435375;23;20000;-59
2022/12/20 11:52:46;;;;;;;23.77;10.13;;;-0.40;99.90;;;;;;6423020;23;20000;-59
2022/12/20 11:55:35;;;;;;;23.85;9.88;;;-0.40;99.90;;;;;;6399703;23;19996;-60
2022/12/20 11:58:21;;;;;;;25.83;10.25;;;-0.30;99.90;;;;;;6436145;23;19999;-57
2022/12/20 12:00:54;;;;;;;36.25;12.48;;;-0.40;99.90;;;;;;6424655;22;20060;-58
2022/12/20 12:03:56;;;;;;;38.25;13.23;;;-0.60;99.90;;;;;;6462142;23;20297;-58
2022/12/20 12:06:38;;;;;;;15.90;9.07;;;-0.60;99.90;;;;;;6412517;23;20020;-58
2022/12/20 12:09:15;;;;;;;21.27;7.85;;;-0.60;99.90;;;;;;6428310;23;19994;-58
2022/12/20 12:11:51;;;;;;;14.32;7.75;;;-0.60;99.90;;;;;;6454652;23;20580;-58
2022/12/20 12:14:42;;;;;;;29.93;11.60;;;-0.70;99.90;;;;;;6427513;23;20507;-58
2022/12/20 12:17:39;;;;;;;26.35;9.82;;;-0.70;99.90;;;;;;6453582;23;20467;-58
2022/12/20 12:20:34;;;;;;;20.63;10.15;;;-0.60;99.90;;;;;;6453959;23;20006;-58
2022/12/20 12:23:20;;;;;;;31.52;10.55;;;-0.60;99.90;;;;;;6402821;23;20169;-59
2022/12/20 12:25:55;;;;;;;35.60;11.23;;;-0.50;99.90;;;;;;6451066;23;20007;-58
2022/12/20 12:28:29;;;;;;;35.25;11.38;;;-0.50;99.90;;;;;;6423422;23;20000;-57
2022/12/20 12:31:15;;;;;;;28.02;11.82;;;-0.50;99.90;;;;;;6426425;23;19992;-59
2022/12/20 12:34:14;;;;;;;25.88;11.32;;;-0.50;99.90;;;;;;6427330;23;19998;-59
2022/12/20 12:36:57;;;;;;;28.23;12.20;;;-0.40;99.90;;;;;;6408318;23;19999;-58
2022/12/20 12:39:55;;;;;;;18.75;9.68;;;-0.40;99.90;;;;;;6427444;23;19988;-58
2022/12/20 12:42:54;;;;;;;16.70;8.70;;;-0.60;99.90;;;;;;6426620;23;20452;-58
2022/12/20 12:45:59;;;;;;;22.38;11.75;;;-0.50;99.90;;;;;;6427127;23;20004;-59
2022/12/20 12:48:35;;;;;;;;;;;-0.60;99.90;;;;;;6358236;23;20007;-59
2022/12/20 12:51:14;;;;;;;17.65;7.13;;;-0.60;99.90;;;;;;6356643;23;19911;-58
2022/12/20 12:53:49;;;;;;;20.30;8.02;;;-0.60;99.90;;;;;;6358111;23;20023;-58
2022/12/20 12:56:26;;;;;;;24.85;10.70;;;-0.60;99.90;;;;;;6331143;23;20128;-59
2022/12/20 12:59:11;;;;;;;21.27;11.52;;;-0.60;99.90;;;;;;6357413;23;20017;-58
2022/12/20 13:01:45;;;;;;;;;;;-0.60;99.90;;;;;;6330974;23;20015;-58
2022/12/20 13:04:52;;;;;;;24.33;9.35;;;-0.50;99.90;;;;;;6317484;23;19912;-58
2022/12/20 13:07:43;;;;;;;22.63;9.80;;;-0.40;99.90;;;;;;6332280;23;20027;-56
2022/12/20 13:10:18;;;;;;;25.33;10.07;;;-0.60;99.90;;;;;;6331767;23;20060;-57
2022/12/20 13:12:49;;;;;;;;;;;-0.50;99.90;;;;;;6306947;23;20160;-58
2022/12/20 13:15:20;;;;;;;25.38;11.13;;;-0.60;99.90;;;;;;6357224;23;19912;-58
2022/12/20 13:17:58;;;;;;;18.73;10.05;;;-0.70;99.90;;;;;;6357643;23;20191;-58
2022/12/20 13:20:34;;;;;;;25.23;12.18;;;-0.70;99.90;;;;;;6351502;23;20454;-59
2022/12/20 13:23:07;;;;;;;18.85;8.63;;;-0.60;99.90;;;;;;6328198;23;20011;-58
2022/12/20 13:25:47;;;;;;;28.20;11.98;;;-0.50;99.90;;;;;;6435794;23;20000;-58
2022/12/20 13:28:19;;;;;;;27.85;11.98;;;-0.60;99.90;;;;;;6452616;23;19999;-59
2022/12/20 13:31:04;;;;;;;36.10;13.27;;;-0.60;99.90;;;;;;6451039;23;20000;-58
2022/12/20 13:33:48;;;;;;;35.78;12.02;;;-0.60;99.90;;;;;;6450064;23;20000;-59
2022/12/20 13:36:36;;;;;;;23.70;9.20;;;-0.50;99.90;;;;;;6449093;23;19996;-58
2022/12/20 13:39:32;;;;;;;26.55;10.63;;;-0.50;99.90;;;;;;6450407;23;19996;-58